M.sahin — TCUH — position and weather

sailwx.info

Track history (hours):
 
Tides and Currents Weather Stations Pressure Air Temp Water Temp Dewpoint Dewpoint Depression Visibility Wind Speed Wind Dir Waves Ship Positions

M.sahin

Last reported at 2017-May-30 05:30 UTC. Time now 2017-May-30 05:34 UTC.
Position N 37°57' E 023°37'.

Length 87 m; draft 5.7 m.

Type: Cargo ship. MMSI: 271000450.

Date/timePositionNaut miles runAvg speedWind from/ knotsBaromVisibWave heightAir tempDewpointWater temp
2017-May-30 05:30N 37°57' E 023°37'0 0.7
2017-May-30 05:01N 37°57' E 023°36'3 5.2
2017-May-30 04:31N 37°55' E 023°37'2 3.7
2017-May-30 04:00N 37°54' E 023°39'0 0.2
2017-May-30 03:30N 37°54' E 023°39'0 0.2
2017-May-30 03:00N 37°54' E 023°39'0 0.2
2017-May-30 02:31N 37°54' E 023°39'0 0.1
2017-May-30 02:00N 37°54' E 023°39'0 0.1
2017-May-30 01:31N 37°54' E 023°39'0 0.3
2017-May-30 01:00N 37°54' E 023°39'0 0.3
2017-May-30 00:30N 37°54' E 023°38'0 0.3
2017-May-30 00:00N 37°54' E 023°38'0 0.2
2017-May-29 23:31N 37°54' E 023°38'0 0.2
2017-May-29 23:00N 37°54' E 023°38'1 2.3
2017-May-29 22:31N 37°53' E 023°38'4 8.7
2017-May-29 22:01N 37°49' E 023°40'4 8.5
2017-May-29 21:31N 37°45' E 023°43'4 8.5
2017-May-29 21:00N 37°41' E 023°45'310 8.0
2017-May-28 06:02N 40°56' E 028°56'0 4.4
2017-May-28 06:00N 40°57' E 028°56'  
Track history (hours):
 
Tides and Currents Weather Stations Pressure Air Temp Water Temp Dewpoint Dewpoint Depression Visibility Wind Speed Wind Dir Waves Ship Positions

M.sahin

Last reported at 2017-May-30 05:30 UTC. Time now 2017-May-30 05:34 UTC.
Position N 37°57' E 023°37'.

Length 87 m; draft 5.7 m.

Type: Cargo ship. MMSI: 271000450.

Date/timePositionNaut miles runAvg speedWind from/ knotsBaromVisibWave heightAir tempDewpointWater temp
2017-May-30 05:30N 37°57' E 023°37'0 0.7
2017-May-30 05:01N 37°57' E 023°36'3 5.2
2017-May-30 04:31N 37°55' E 023°37'2 3.7
2017-May-30 04:00N 37°54' E 023°39'0 0.2
2017-May-30 03:30N 37°54' E 023°39'0 0.2
2017-May-30 03:00N 37°54' E 023°39'0 0.2
2017-May-30 02:31N 37°54' E 023°39'0 0.1
2017-May-30 02:00N 37°54' E 023°39'0 0.1
2017-May-30 01:31N 37°54' E 023°39'0 0.3
2017-May-30 01:00N 37°54' E 023°39'0 0.3
2017-May-30 00:30N 37°54' E 023°38'0 0.3
2017-May-30 00:00N 37°54' E 023°38'0 0.2
2017-May-29 23:31N 37°54' E 023°38'0 0.2
2017-May-29 23:00N 37°54' E 023°38'1 2.3
2017-May-29 22:31N 37°53' E 023°38'4 8.7
2017-May-29 22:01N 37°49' E 023°40'4 8.5
2017-May-29 21:31N 37°45' E 023°43'4 8.5
2017-May-29 21:00N 37°41' E 023°45'310 8.0
2017-May-28 06:02N 40°56' E 028°56'0 4.4
2017-May-28 06:00N 40°57' E 028°56'  

Dump ship's entire track history